CBK9 weather

Little Parker Island Heliport
Little Parker Island, British Columbia, Canada

Public forecast

Using degrees Celsius for public forecast. Weather courtesy of forecast.io.

METAR (pilot weather report)

Closest report is Victoria International Airport, 15.0 nm (27.7 km) S. Retrieved 2019/07/16 07:00 UTC (42 minutes ago):

CYYJ 160700Z 00000KT 20SM FEW100 FEW200 14/12 A3002 RMK AC1CI1 CI TR SLP166

TAF (pilot weather forecast)

Closest forecast is Victoria International Airport, 15.0 nm (27.7 km) S. Retrieved 2019/07/16 06:42 UTC (60 minutes ago):

TAF CYYJ 160539Z 1606/1706 VRB03KT P6SM FEW030 SCT200 FM161200 VRB03KT P6SM FEW010 SCT040 PROB30 1612/1616 BKN008 FM161800 12008KT P6SM SCT060 RMK NXT FCST BY 161200Z